sensor_id;sensor_type;location;lat;lon;timestamp;temperature;humidity
73586;DHT22;61865;50.232;18.614;2023-05-14T00:00:39;7.40;99.90
73586;DHT22;61865;50.232;18.614;2023-05-14T00:03:03;7.30;99.90
73586;DHT22;61865;50.232;18.614;2023-05-14T00:05:25;7.10;99.90
73586;DHT22;61865;50.232;18.614;2023-05-14T00:07:49;7.10;99.90
73586;DHT22;61865;50.232;18.614;2023-05-14T00:10:11;7.10;99.90
73586;DHT22;61865;50.232;18.614;2023-05-14T00:12:33;7.00;99.90
73586;DHT22;61865;50.232;18.614;2023-05-14T00:14:55;6.90;99.90
73586;DHT22;61865;50.232;18.614;2023-05-14T00:17:17;6.90;99.90
73586;DHT22;61865;50.232;18.614;2023-05-14T00:19:39;6.90;99.90
73586;DHT22;61865;50.232;18.614;2023-05-14T00:22:02;7.00;99.90
73586;DHT22;61865;50.232;18.614;2023-05-14T00:24:25;7.00;99.90
73586;DHT22;61865;50.232;18.614;2023-05-14T00:26:47;7.10;99.90
73586;DHT22;61865;50.232;18.614;2023-05-14T00:29:09;7.10;99.90
73586;DHT22;61865;50.232;18.614;2023-05-14T00:31:31;7.10;99.90
73586;DHT22;61865;50.232;18.614;2023-05-14T00:33:53;7.10;99.90
73586;DHT22;61865;50.232;18.614;2023-05-14T00:36:15;7.00;99.90
73586;DHT22;61865;50.232;18.614;2023-05-14T00:38:37;6.90;99.90
73586;DHT22;61865;50.232;18.614;2023-05-14T00:41:00;6.90;99.90
73586;DHT22;61865;50.232;18.614;2023-05-14T00:43:22;6.90;99.90
73586;DHT22;61865;50.232;18.614;2023-05-14T00:45:45;6.90;99.90
73586;DHT22;61865;50.232;18.614;2023-05-14T00:48:08;6.80;99.90
73586;DHT22;61865;50.232;18.614;2023-05-14T00:50:30;6.80;99.90
73586;DHT22;61865;50.232;18.614;2023-05-14T00:52:52;6.80;99.90
73586;DHT22;61865;50.232;18.614;2023-05-14T00:55:15;6.80;99.90
73586;DHT22;61865;50.232;18.614;2023-05-14T00:57:38;6.80;99.90
73586;DHT22;61865;50.232;18.614;2023-05-14T01:00:01;6.70;99.90
73586;DHT22;61865;50.232;18.614;2023-05-14T01:02:23;6.60;99.90
73586;DHT22;61865;50.232;18.614;2023-05-14T01:04:45;6.60;99.90
73586;DHT22;61865;50.232;18.614;2023-05-14T01:07:11;6.60;99.90
73586;DHT22;61865;50.232;18.614;2023-05-14T01:09:38;6.60;99.90
73586;DHT22;61865;50.232;18.614;2023-05-14T01:12:09;6.60;99.90
73586;DHT22;61865;50.232;18.614;2023-05-14T01:14:39;6.60;99.90
73586;DHT22;61865;50.232;18.614;2023-05-14T01:17:04;6.60;99.90
73586;DHT22;61865;50.232;18.614;2023-05-14T01:19:36;6.50;99.90
73586;DHT22;61865;50.232;18.614;2023-05-14T01:21:59;6.50;99.90
73586;DHT22;61865;50.232;18.614;2023-05-14T01:24:21;6.40;99.90
73586;DHT22;61865;50.232;18.614;2023-05-14T01:26:43;6.40;99.90
73586;DHT22;61865;50.232;18.614;2023-05-14T01:29:14;6.30;99.90
73586;DHT22;61865;50.232;18.614;2023-05-14T01:31:39;6.30;99.90
73586;DHT22;61865;50.232;18.614;2023-05-14T01:34:04;6.20;99.90
73586;DHT22;61865;50.232;18.614;2023-05-14T01:36:27;6.10;99.90
73586;DHT22;61865;50.232;18.614;2023-05-14T01:38:50;6.00;99.90
73586;DHT22;61865;50.232;18.614;2023-05-14T01:41:13;5.80;99.90
73586;DHT22;61865;50.232;18.614;2023-05-14T01:43:36;5.60;99.90
73586;DHT22;61865;50.232;18.614;2023-05-14T01:45:58;5.60;99.90
73586;DHT22;61865;50.232;18.614;2023-05-14T01:48:21;5.60;99.90
73586;DHT22;61865;50.232;18.614;2023-05-14T01:50:43;5.70;99.90
73586;DHT22;61865;50.232;18.614;2023-05-14T01:53:05;5.70;99.90
73586;DHT22;61865;50.232;18.614;2023-05-14T01:55:28;5.80;99.90
73586;DHT22;61865;50.232;18.614;2023-05-14T01:57:50;5.80;99.90
73586;DHT22;61865;50.232;18.614;2023-05-14T02:00:13;5.80;99.90
73586;DHT22;61865;50.232;18.614;2023-05-14T02:02:35;5.90;99.90
73586;DHT22;61865;50.232;18.614;2023-05-14T02:04:56;5.90;99.90
73586;DHT22;61865;50.232;18.614;2023-05-14T02:07:18;5.90;99.90
73586;DHT22;61865;50.232;18.614;2023-05-14T02:09:40;5.90;99.90
73586;DHT22;61865;50.232;18.614;2023-05-14T02:12:04;5.90;99.90
73586;DHT22;61865;50.232;18.614;2023-05-14T02:14:26;5.90;99.90
73586;DHT22;61865;50.232;18.614;2023-05-14T02:16:48;5.90;99.90
73586;DHT22;61865;50.232;18.614;2023-05-14T02:19:11;5.80;99.90
73586;DHT22;61865;50.232;18.614;2023-05-14T02:21:34;5.70;99.90
73586;DHT22;61865;50.232;18.614;2023-05-14T02:23:55;5.60;99.90
73586;DHT22;61865;50.232;18.614;2023-05-14T02:26:18;5.60;99.90
73586;DHT22;61865;50.232;18.614;2023-05-14T02:28:42;5.50;99.90
73586;DHT22;61865;50.232;18.614;2023-05-14T02:31:05;5.40;99.90
73586;DHT22;61865;50.232;18.614;2023-05-14T02:33:27;5.20;99.90
73586;DHT22;61865;50.232;18.614;2023-05-14T02:35:49;5.20;99.90
73586;DHT22;61865;50.232;18.614;2023-05-14T02:38:11;5.10;99.90
73586;DHT22;61865;50.232;18.614;2023-05-14T02:40:35;5.00;99.90
73586;DHT22;61865;50.232;18.614;2023-05-14T02:42:57;5.10;99.90
73586;DHT22;61865;50.232;18.614;2023-05-14T02:45:21;5.10;99.90
73586;DHT22;61865;50.232;18.614;2023-05-14T02:47:43;5.20;99.90
73586;DHT22;61865;50.232;18.614;2023-05-14T02:50:06;5.30;99.90
73586;DHT22;61865;50.232;18.614;2023-05-14T02:52:28;5.30;99.90
73586;DHT22;61865;50.232;18.614;2023-05-14T02:54:50;5.40;99.90
73586;DHT22;61865;50.232;18.614;2023-05-14T02:57:12;5.50;99.90
73586;DHT22;61865;50.232;18.614;2023-05-14T02:59:34;5.50;99.90
73586;DHT22;61865;50.232;18.614;2023-05-14T03:01:57;5.50;99.90
73586;DHT22;61865;50.232;18.614;2023-05-14T03:04:19;5.50;99.90
73586;DHT22;61865;50.232;18.614;2023-05-14T03:06:41;5.60;99.90
73586;DHT22;61865;50.232;18.614;2023-05-14T03:09:03;5.60;99.90
73586;DHT22;61865;50.232;18.614;2023-05-14T03:11:27;5.70;99.90
73586;DHT22;61865;50.232;18.614;2023-05-14T03:13:49;5.80;99.90
73586;DHT22;61865;50.232;18.614;2023-05-14T03:16:11;5.80;99.90
73586;DHT22;61865;50.232;18.614;2023-05-14T03:18:34;5.80;99.90
73586;DHT22;61865;50.232;18.614;2023-05-14T03:20:56;5.90;99.90
73586;DHT22;61865;50.232;18.614;2023-05-14T03:23:18;6.10;99.90
73586;DHT22;61865;50.232;18.614;2023-05-14T03:25:40;6.10;99.90
73586;DHT22;61865;50.232;18.614;2023-05-14T03:28:02;6.20;99.90
73586;DHT22;61865;50.232;18.614;2023-05-14T03:30:25;6.20;99.90
73586;DHT22;61865;50.232;18.614;2023-05-14T03:32:47;6.40;99.90
73586;DHT22;61865;50.232;18.614;2023-05-14T03:35:10;6.50;99.90
73586;DHT22;61865;50.232;18.614;2023-05-14T03:37:32;6.60;99.90
73586;DHT22;61865;50.232;18.614;2023-05-14T03:39:54;6.60;99.90
73586;DHT22;61865;50.232;18.614;2023-05-14T03:42:16;6.50;99.90
73586;DHT22;61865;50.232;18.614;2023-05-14T03:44:38;6.60;99.90
73586;DHT22;61865;50.232;18.614;2023-05-14T03:47:00;6.60;99.90
73586;DHT22;61865;50.232;18.614;2023-05-14T03:49:22;6.70;99.90
73586;DHT22;61865;50.232;18.614;2023-05-14T03:51:45;6.80;99.90
73586;DHT22;61865;50.232;18.614;2023-05-14T03:54:07;6.90;99.90
73586;DHT22;61865;50.232;18.614;2023-05-14T03:56:29;6.90;99.90
73586;DHT22;61865;50.232;18.614;2023-05-14T03:58:51;7.00;99.90
73586;DHT22;61865;50.232;18.614;2023-05-14T04:01:13;7.00;99.90
73586;DHT22;61865;50.232;18.614;2023-05-14T04:03:35;6.90;99.90
73586;DHT22;61865;50.232;18.614;2023-05-14T04:05:57;6.90;99.90
73586;DHT22;61865;50.232;18.614;2023-05-14T04:08:20;6.70;99.90
73586;DHT22;61865;50.232;18.614;2023-05-14T04:10:42;6.70;99.90
73586;DHT22;61865;50.232;18.614;2023-05-14T04:13:04;6.60;99.90
73586;DHT22;61865;50.232;18.614;2023-05-14T04:15:26;6.70;99.90
73586;DHT22;61865;50.232;18.614;2023-05-14T04:17:48;6.70;99.90
73586;DHT22;61865;50.232;18.614;2023-05-14T04:20:10;6.70;99.90
73586;DHT22;61865;50.232;18.614;2023-05-14T04:22:32;7.00;99.90
73586;DHT22;61865;50.232;18.614;2023-05-14T04:24:56;7.20;99.90
73586;DHT22;61865;50.232;18.614;2023-05-14T04:27:19;7.40;99.90
73586;DHT22;61865;50.232;18.614;2023-05-14T04:29:41;7.70;99.90
73586;DHT22;61865;50.232;18.614;2023-05-14T04:32:04;8.00;99.90
73586;DHT22;61865;50.232;18.614;2023-05-14T04:34:27;8.40;99.90
73586;DHT22;61865;50.232;18.614;2023-05-14T04:36:49;8.60;99.90
73586;DHT22;61865;50.232;18.614;2023-05-14T04:39:11;8.90;99.90
73586;DHT22;61865;50.232;18.614;2023-05-14T04:41:35;9.10;99.90
73586;DHT22;61865;50.232;18.614;2023-05-14T04:43:58;9.20;99.90
73586;DHT22;61865;50.232;18.614;2023-05-14T04:46:21;9.30;99.90
73586;DHT22;61865;50.232;18.614;2023-05-14T04:48:43;9.50;99.90
73586;DHT22;61865;50.232;18.614;2023-05-14T04:51:05;9.70;99.90
73586;DHT22;61865;50.232;18.614;2023-05-14T04:53:27;10.00;99.90
73586;DHT22;61865;50.232;18.614;2023-05-14T04:55:49;10.30;99.90
73586;DHT22;61865;50.232;18.614;2023-05-14T04:58:12;10.60;99.90
73586;DHT22;61865;50.232;18.614;2023-05-14T05:00:34;10.80;99.90
73586;DHT22;61865;50.232;18.614;2023-05-14T05:02:57;11.00;99.90
73586;DHT22;61865;50.232;18.614;2023-05-14T05:05:19;11.20;99.90
73586;DHT22;61865;50.232;18.614;2023-05-14T05:07:41;11.40;99.90
73586;DHT22;61865;50.232;18.614;2023-05-14T05:10:03;11.70;99.90
73586;DHT22;61865;50.232;18.614;2023-05-14T05:12:26;11.80;99.90
73586;DHT22;61865;50.232;18.614;2023-05-14T05:14:51;12.00;99.90
73586;DHT22;61865;50.232;18.614;2023-05-14T05:17:13;12.00;99.90
73586;DHT22;61865;50.232;18.614;2023-05-14T05:19:36;12.10;99.90
73586;DHT22;61865;50.232;18.614;2023-05-14T05:21:58;12.20;99.90
73586;DHT22;61865;50.232;18.614;2023-05-14T05:24:20;12.30;99.90
73586;DHT22;61865;50.232;18.614;2023-05-14T05:26:42;12.50;99.90
73586;DHT22;61865;50.232;18.614;2023-05-14T05:29:04;12.60;99.90
73586;DHT22;61865;50.232;18.614;2023-05-14T05:31:28;12.80;99.90
73586;DHT22;61865;50.232;18.614;2023-05-14T05:33:50;12.90;99.90
73586;DHT22;61865;50.232;18.614;2023-05-14T05:36:12;13.10;99.90
73586;DHT22;61865;50.232;18.614;2023-05-14T05:38:34;13.20;99.90
73586;DHT22;61865;50.232;18.614;2023-05-14T05:40:56;13.30;99.90
73586;DHT22;61865;50.232;18.614;2023-05-14T05:43:18;13.50;99.90
73586;DHT22;61865;50.232;18.614;2023-05-14T05:45:40;13.70;99.90
73586;DHT22;61865;50.232;18.614;2023-05-14T05:48:04;13.80;99.90
73586;DHT22;61865;50.232;18.614;2023-05-14T05:50:26;13.80;99.90
73586;DHT22;61865;50.232;18.614;2023-05-14T05:52:48;13.90;99.90
73586;DHT22;61865;50.232;18.614;2023-05-14T05:55:10;14.10;99.90
73586;DHT22;61865;50.232;18.614;2023-05-14T05:57:32;14.10;99.90
73586;DHT22;61865;50.232;18.614;2023-05-14T05:59:54;14.30;99.90
73586;DHT22;61865;50.232;18.614;2023-05-14T06:02:18;14.40;99.90
73586;DHT22;61865;50.232;18.614;2023-05-14T06:04:41;14.50;99.90
73586;DHT22;61865;50.232;18.614;2023-05-14T06:07:03;14.60;99.90
73586;DHT22;61865;50.232;18.614;2023-05-14T06:09:25;14.60;99.90
73586;DHT22;61865;50.232;18.614;2023-05-14T06:11:47;14.60;99.90
73586;DHT22;61865;50.232;18.614;2023-05-14T06:14:09;14.60;99.90
73586;DHT22;61865;50.232;18.614;2023-05-14T06:16:31;14.70;99.90
73586;DHT22;61865;50.232;18.614;2023-05-14T06:18:53;14.80;99.90
73586;DHT22;61865;50.232;18.614;2023-05-14T06:21:16;14.80;99.90
73586;DHT22;61865;50.232;18.614;2023-05-14T06:23:38;14.90;99.90
73586;DHT22;61865;50.232;18.614;2023-05-14T06:26:00;15.00;99.90
73586;DHT22;61865;50.232;18.614;2023-05-14T06:28:23;15.10;99.90
73586;DHT22;61865;50.232;18.614;2023-05-14T06:30:45;15.00;99.90
73586;DHT22;61865;50.232;18.614;2023-05-14T06:33:08;15.00;99.90
73586;DHT22;61865;50.232;18.614;2023-05-14T06:35:32;15.10;99.90
73586;DHT22;61865;50.232;18.614;2023-05-14T06:37:58;15.10;99.90
73586;DHT22;61865;50.232;18.614;2023-05-14T06:40:20;15.20;99.90
73586;DHT22;61865;50.232;18.614;2023-05-14T06:42:42;15.20;99.90
73586;DHT22;61865;50.232;18.614;2023-05-14T06:45:05;15.30;99.90
73586;DHT22;61865;50.232;18.614;2023-05-14T06:47:27;15.40;99.90
73586;DHT22;61865;50.232;18.614;2023-05-14T06:49:49;15.50;99.90
73586;DHT22;61865;50.232;18.614;2023-05-14T06:52:12;15.50;99.90
73586;DHT22;61865;50.232;18.614;2023-05-14T06:54:35;15.50;98.90
73586;DHT22;61865;50.232;18.614;2023-05-14T06:56:57;15.60;99.80
73586;DHT22;61865;50.232;18.614;2023-05-14T06:59:19;15.70;99.90
73586;DHT22;61865;50.232;18.614;2023-05-14T07:01:41;15.70;99.90
73586;DHT22;61865;50.232;18.614;2023-05-14T07:04:03;15.90;96.40
73586;DHT22;61865;50.232;18.614;2023-05-14T07:06:25;15.90;94.10
73586;DHT22;61865;50.232;18.614;2023-05-14T07:08:47;15.90;97.20
73586;DHT22;61865;50.232;18.614;2023-05-14T07:11:11;16.10;92.80
73586;DHT22;61865;50.232;18.614;2023-05-14T07:13:34;16.20;90.90
73586;DHT22;61865;50.232;18.614;2023-05-14T07:15:56;16.30;89.10
73586;DHT22;61865;50.232;18.614;2023-05-14T07:18:18;16.30;86.00
73586;DHT22;61865;50.232;18.614;2023-05-14T07:20:40;16.40;87.40
73586;DHT22;61865;50.232;18.614;2023-05-14T07:23:02;16.40;93.20
73586;DHT22;61865;50.232;18.614;2023-05-14T07:25:24;16.50;89.70
73586;DHT22;61865;50.232;18.614;2023-05-14T07:27:47;16.60;91.70
73586;DHT22;61865;50.232;18.614;2023-05-14T07:30:10;16.90;84.70
73586;DHT22;61865;50.232;18.614;2023-05-14T07:32:32;17.10;76.70
73586;DHT22;61865;50.232;18.614;2023-05-14T07:34:54;17.00;73.20
73586;DHT22;61865;50.232;18.614;2023-05-14T07:37:16;17.00;74.50
73586;DHT22;61865;50.232;18.614;2023-05-14T07:39:38;17.20;71.90
73586;DHT22;61865;50.232;18.614;2023-05-14T07:42:01;17.10;73.20
73586;DHT22;61865;50.232;18.614;2023-05-14T07:44:24;17.30;68.70
73586;DHT22;61865;50.232;18.614;2023-05-14T07:46:46;17.20;67.70
73586;DHT22;61865;50.232;18.614;2023-05-14T07:49:08;17.30;67.00
73586;DHT22;61865;50.232;18.614;2023-05-14T07:51:30;17.40;66.00
73586;DHT22;61865;50.232;18.614;2023-05-14T07:53:53;17.40;64.90
73586;DHT22;61865;50.232;18.614;2023-05-14T07:56:16;17.00;65.40
73586;DHT22;61865;50.232;18.614;2023-05-14T07:58:39;17.10;67.50
73586;DHT22;61865;50.232;18.614;2023-05-14T08:01:03;17.20;70.60
73586;DHT22;61865;50.232;18.614;2023-05-14T08:03:26;17.40;69.10
73586;DHT22;61865;50.232;18.614;2023-05-14T08:05:48;17.70;65.40
73586;DHT22;61865;50.232;18.614;2023-05-14T08:08:11;17.80;64.50
73586;DHT22;61865;50.232;18.614;2023-05-14T08:10:33;17.80;63.10
73586;DHT22;61865;50.232;18.614;2023-05-14T08:12:55;17.70;62.30
73586;DHT22;61865;50.232;18.614;2023-05-14T08:15:17;17.60;62.70
73586;DHT22;61865;50.232;18.614;2023-05-14T08:17:40;17.70;61.80
73586;DHT22;61865;50.232;18.614;2023-05-14T08:20:04;17.70;64.90
73586;DHT22;61865;50.232;18.614;2023-05-14T08:22:27;17.50;63.10
73586;DHT22;61865;50.232;18.614;2023-05-14T08:24:51;17.50;64.50
73586;DHT22;61865;50.232;18.614;2023-05-14T08:27:13;17.60;62.70
73586;DHT22;61865;50.232;18.614;2023-05-14T08:29:36;17.70;64.00
73586;DHT22;61865;50.232;18.614;2023-05-14T08:31:58;17.20;61.70
73586;DHT22;61865;50.232;18.614;2023-05-14T08:34:22;16.90;63.90
73586;DHT22;61865;50.232;18.614;2023-05-14T08:36:44;17.00;65.50
73586;DHT22;61865;50.232;18.614;2023-05-14T08:39:06;17.20;66.00
73586;DHT22;61865;50.232;18.614;2023-05-14T08:41:28;17.20;67.90
73586;DHT22;61865;50.232;18.614;2023-05-14T08:43:57;17.30;63.70
73586;DHT22;61865;50.232;18.614;2023-05-14T08:46:22;17.60;63.10
73586;DHT22;61865;50.232;18.614;2023-05-14T08:48:47;17.80;61.40
73586;DHT22;61865;50.232;18.614;2023-05-14T08:51:12;17.70;61.50
73586;DHT22;61865;50.232;18.614;2023-05-14T08:53:35;17.90;60.80
73586;DHT22;61865;50.232;18.614;2023-05-14T08:55:58;18.10;59.00
73586;DHT22;61865;50.232;18.614;2023-05-14T08:58:21;18.10;59.70
73586;DHT22;61865;50.232;18.614;2023-05-14T09:00:45;18.20;58.90
73586;DHT22;61865;50.232;18.614;2023-05-14T09:03:07;18.30;58.20
73586;DHT22;61865;50.232;18.614;2023-05-14T09:05:30;18.20;57.30
73586;DHT22;61865;50.232;18.614;2023-05-14T09:07:54;18.20;62.60
73586;DHT22;61865;50.232;18.614;2023-05-14T09:10:16;18.20;57.90
73586;DHT22;61865;50.232;18.614;2023-05-14T09:12:40;18.20;58.50
73586;DHT22;61865;50.232;18.614;2023-05-14T09:15:02;18.10;56.80
73586;DHT22;61865;50.232;18.614;2023-05-14T09:17:25;18.10;56.70
73586;DHT22;61865;50.232;18.614;2023-05-14T09:19:47;18.30;60.50
73586;DHT22;61865;50.232;18.614;2023-05-14T09:22:13;18.30;58.40
73586;DHT22;61865;50.232;18.614;2023-05-14T09:24:37;18.50;59.50
73586;DHT22;61865;50.232;18.614;2023-05-14T09:27:01;18.60;57.80
73586;DHT22;61865;50.232;18.614;2023-05-14T09:29:24;18.60;57.10
73586;DHT22;61865;50.232;18.614;2023-05-14T09:31:47;18.70;57.00
73586;DHT22;61865;50.232;18.614;2023-05-14T09:34:10;18.80;58.70
73586;DHT22;61865;50.232;18.614;2023-05-14T09:36:33;18.80;57.80
73586;DHT22;61865;50.232;18.614;2023-05-14T09:38:55;18.80;57.70
73586;DHT22;61865;50.232;18.614;2023-05-14T09:41:19;18.60;57.90
73586;DHT22;61865;50.232;18.614;2023-05-14T09:43:42;18.50;56.60
73586;DHT22;61865;50.232;18.614;2023-05-14T09:46:04;18.60;56.70
73586;DHT22;61865;50.232;18.614;2023-05-14T09:48:26;18.60;56.30
73586;DHT22;61865;50.232;18.614;2023-05-14T09:50:48;18.70;56.70
73586;DHT22;61865;50.232;18.614;2023-05-14T09:53:12;18.70;58.40
73586;DHT22;61865;50.232;18.614;2023-05-14T09:55:35;18.80;58.50
73586;DHT22;61865;50.232;18.614;2023-05-14T09:57:59;18.90;57.40
73586;DHT22;61865;50.232;18.614;2023-05-14T10:00:21;19.10;57.00
73586;DHT22;61865;50.232;18.614;2023-05-14T10:02:44;19.30;54.80
73586;DHT22;61865;50.232;18.614;2023-05-14T10:05:09;19.30;53.00
73586;DHT22;61865;50.232;18.614;2023-05-14T10:07:35;19.50;51.10
73586;DHT22;61865;50.232;18.614;2023-05-14T10:10:01;19.70;51.40
73586;DHT22;61865;50.232;18.614;2023-05-14T10:12:24;19.80;51.00
73586;DHT22;61865;50.232;18.614;2023-05-14T10:14:49;19.80;52.60
73586;DHT22;61865;50.232;18.614;2023-05-14T10:17:13;19.90;50.70
73586;DHT22;61865;50.232;18.614;2023-05-14T10:19:38;19.70;51.10
73586;DHT22;61865;50.232;18.614;2023-05-14T10:22:04;19.50;51.60
73586;DHT22;61865;50.232;18.614;2023-05-14T10:24:27;19.40;51.90
73586;DHT22;61865;50.232;18.614;2023-05-14T10:26:50;19.50;49.30
73586;DHT22;61865;50.232;18.614;2023-05-14T10:29:12;19.60;50.00
73586;DHT22;61865;50.232;18.614;2023-05-14T10:31:47;19.80;48.30
73586;DHT22;61865;50.232;18.614;2023-05-14T10:34:30;19.90;47.00
73586;DHT22;61865;50.232;18.614;2023-05-14T10:36:52;19.90;46.40
73586;DHT22;61865;50.232;18.614;2023-05-14T10:39:14;20.10;46.90
73586;DHT22;61865;50.232;18.614;2023-05-14T10:41:37;20.20;46.90
73586;DHT22;61865;50.232;18.614;2023-05-14T10:44:07;20.30;45.60
73586;DHT22;61865;50.232;18.614;2023-05-14T10:46:30;20.20;44.40
73586;DHT22;61865;50.232;18.614;2023-05-14T10:48:54;20.20;44.60
73586;DHT22;61865;50.232;18.614;2023-05-14T10:51:17;20.00;44.30
73586;DHT22;61865;50.232;18.614;2023-05-14T10:53:43;20.10;46.30
73586;DHT22;61865;50.232;18.614;2023-05-14T10:56:06;20.20;40.60
73586;DHT22;61865;50.232;18.614;2023-05-14T10:58:30;20.30;41.90
73586;DHT22;61865;50.232;18.614;2023-05-14T11:00:53;20.50;43.60
73586;DHT22;61865;50.232;18.614;2023-05-14T11:03:17;20.70;42.80
73586;DHT22;61865;50.232;18.614;2023-05-14T11:05:40;20.80;41.60
73586;DHT22;61865;50.232;18.614;2023-05-14T11:08:04;20.90;41.60
73586;DHT22;61865;50.232;18.614;2023-05-14T11:10:28;21.10;40.70
73586;DHT22;61865;50.232;18.614;2023-05-14T11:12:51;21.30;40.40
73586;DHT22;61865;50.232;18.614;2023-05-14T11:15:14;21.40;40.70
73586;DHT22;61865;50.232;18.614;2023-05-14T11:17:38;21.60;39.80
73586;DHT22;61865;50.232;18.614;2023-05-14T11:20:01;21.70;41.00
73586;DHT22;61865;50.232;18.614;2023-05-14T11:22:25;22.00;39.30
73586;DHT22;61865;50.232;18.614;2023-05-14T11:24:47;22.20;40.50
73586;DHT22;61865;50.232;18.614;2023-05-14T11:27:10;22.20;38.30
73586;DHT22;61865;50.232;18.614;2023-05-14T11:29:32;22.40;37.30
73586;DHT22;61865;50.232;18.614;2023-05-14T11:31:57;22.50;37.50
73586;DHT22;61865;50.232;18.614;2023-05-14T11:34:19;22.70;36.10
73586;DHT22;61865;50.232;18.614;2023-05-14T11:36:42;22.70;35.50
73586;DHT22;61865;50.232;18.614;2023-05-14T11:39:19;22.80;35.70
73586;DHT22;61865;50.232;18.614;2023-05-14T11:41:43;22.80;35.80
73586;DHT22;61865;50.232;18.614;2023-05-14T11:44:09;23.00;36.20
73586;DHT22;61865;50.232;18.614;2023-05-14T11:46:31;23.10;35.90
73586;DHT22;61865;50.232;18.614;2023-05-14T11:48:55;23.30;36.10
73586;DHT22;61865;50.232;18.614;2023-05-14T11:51:17;23.10;35.30
73586;DHT22;61865;50.232;18.614;2023-05-14T11:53:39;22.90;36.60
73586;DHT22;61865;50.232;18.614;2023-05-14T11:56:03;23.00;35.70
73586;DHT22;61865;50.232;18.614;2023-05-14T11:58:25;22.90;35.80
73586;DHT22;61865;50.232;18.614;2023-05-14T12:00:49;23.00;34.90
73586;DHT22;61865;50.232;18.614;2023-05-14T12:03:11;23.10;34.90
73586;DHT22;61865;50.232;18.614;2023-05-14T12:05:36;22.90;34.90
73586;DHT22;61865;50.232;18.614;2023-05-14T12:07:58;22.90;34.10
73586;DHT22;61865;50.232;18.614;2023-05-14T12:10:20;22.90;34.80
73586;DHT22;61865;50.232;18.614;2023-05-14T12:12:46;23.00;33.70
73586;DHT22;61865;50.232;18.614;2023-05-14T12:15:12;22.80;31.40
73586;DHT22;61865;50.232;18.614;2023-05-14T12:17:34;22.40;30.70
73586;DHT22;61865;50.232;18.614;2023-05-14T12:19:58;22.30;31.50
73586;DHT22;61865;50.232;18.614;2023-05-14T12:22:21;22.30;34.00
73586;DHT22;61865;50.232;18.614;2023-05-14T12:24:52;22.30;34.50
73586;DHT22;61865;50.232;18.614;2023-05-14T12:27:13;22.30;34.90
73586;DHT22;61865;50.232;18.614;2023-05-14T12:29:37;22.30;34.60
73586;DHT22;61865;50.232;18.614;2023-05-14T12:31:59;22.30;34.10
73586;DHT22;61865;50.232;18.614;2023-05-14T12:34:24;22.20;33.90
73586;DHT22;61865;50.232;18.614;2023-05-14T12:36:46;22.30;34.50
73586;DHT22;61865;50.232;18.614;2023-05-14T12:39:08;22.50;34.50
73586;DHT22;61865;50.232;18.614;2023-05-14T12:41:32;22.90;33.60
73586;DHT22;61865;50.232;18.614;2023-05-14T12:43:54;23.00;33.90
73586;DHT22;61865;50.232;18.614;2023-05-14T12:46:17;22.90;33.80
73586;DHT22;61865;50.232;18.614;2023-05-14T12:48:39;22.80;33.90
73586;DHT22;61865;50.232;18.614;2023-05-14T12:51:01;22.60;33.90
73586;DHT22;61865;50.232;18.614;2023-05-14T12:53:23;22.60;34.70
73586;DHT22;61865;50.232;18.614;2023-05-14T12:55:45;22.80;35.30
73586;DHT22;61865;50.232;18.614;2023-05-14T12:58:09;22.80;34.80
73586;DHT22;61865;50.232;18.614;2023-05-14T13:00:31;22.80;33.70
73586;DHT22;61865;50.232;18.614;2023-05-14T13:02:54;22.80;33.00
73586;DHT22;61865;50.232;18.614;2023-05-14T13:05:16;22.80;34.60
73586;DHT22;61865;50.232;18.614;2023-05-14T13:07:38;22.90;33.80
73586;DHT22;61865;50.232;18.614;2023-05-14T13:10:00;22.80;34.30
73586;DHT22;61865;50.232;18.614;2023-05-14T13:12:25;22.80;34.30
73586;DHT22;61865;50.232;18.614;2023-05-14T13:14:47;22.90;33.20
73586;DHT22;61865;50.232;18.614;2023-05-14T13:17:08;23.00;33.40
73586;DHT22;61865;50.232;18.614;2023-05-14T13:19:32;23.30;33.80
73586;DHT22;61865;50.232;18.614;2023-05-14T13:21:54;23.40;33.70
73586;DHT22;61865;50.232;18.614;2023-05-14T13:24:16;23.30;32.70
73586;DHT22;61865;50.232;18.614;2023-05-14T13:26:38;23.20;34.10
73586;DHT22;61865;50.232;18.614;2023-05-14T13:29:00;23.10;34.20
73586;DHT22;61865;50.232;18.614;2023-05-14T13:31:22;23.10;35.00
73586;DHT22;61865;50.232;18.614;2023-05-14T13:33:44;22.90;34.10
73586;DHT22;61865;50.232;18.614;2023-05-14T13:36:09;23.00;34.30
73586;DHT22;61865;50.232;18.614;2023-05-14T13:38:31;22.80;35.00
73586;DHT22;61865;50.232;18.614;2023-05-14T13:40:53;22.70;34.20
73586;DHT22;61865;50.232;18.614;2023-05-14T13:43:16;22.60;34.30
73586;DHT22;61865;50.232;18.614;2023-05-14T13:45:38;22.50;35.80
73586;DHT22;61865;50.232;18.614;2023-05-14T13:48:00;22.50;35.30
73586;DHT22;61865;50.232;18.614;2023-05-14T13:50:22;22.50;34.30
73586;DHT22;61865;50.232;18.614;2023-05-14T13:52:47;22.30;33.80
73586;DHT22;61865;50.232;18.614;2023-05-14T13:55:09;22.10;33.80
73586;DHT22;61865;50.232;18.614;2023-05-14T13:57:34;21.90;34.10
73586;DHT22;61865;50.232;18.614;2023-05-14T13:59:56;21.80;35.40
73586;DHT22;61865;50.232;18.614;2023-05-14T14:02:18;21.80;34.70
73586;DHT22;61865;50.232;18.614;2023-05-14T14:04:40;21.90;36.10
73586;DHT22;61865;50.232;18.614;2023-05-14T14:07:01;21.80;34.60
73586;DHT22;61865;50.232;18.614;2023-05-14T14:09:25;21.90;34.70
73586;DHT22;61865;50.232;18.614;2023-05-14T14:11:49;21.80;34.60
73586;DHT22;61865;50.232;18.614;2023-05-14T14:14:11;22.00;35.10
73586;DHT22;61865;50.232;18.614;2023-05-14T14:16:33;22.10;34.70
73586;DHT22;61865;50.232;18.614;2023-05-14T14:18:58;22.00;35.90
73586;DHT22;61865;50.232;18.614;2023-05-14T14:21:21;21.90;35.40
73586;DHT22;61865;50.232;18.614;2023-05-14T14:23:44;21.80;36.20
73586;DHT22;61865;50.232;18.614;2023-05-14T14:26:07;21.60;35.50
73586;DHT22;61865;50.232;18.614;2023-05-14T14:28:29;21.40;35.70
73586;DHT22;61865;50.232;18.614;2023-05-14T14:30:51;21.30;35.70
73586;DHT22;61865;50.232;18.614;2023-05-14T14:33:14;21.30;36.70
73586;DHT22;61865;50.232;18.614;2023-05-14T14:35:35;21.20;36.40
73586;DHT22;61865;50.232;18.614;2023-05-14T14:37:58;21.20;35.30
73586;DHT22;61865;50.232;18.614;2023-05-14T14:40:20;21.20;35.70
73586;DHT22;61865;50.232;18.614;2023-05-14T14:42:44;21.20;34.30
73586;DHT22;61865;50.232;18.614;2023-05-14T14:45:07;21.20;35.70
73586;DHT22;61865;50.232;18.614;2023-05-14T14:47:30;21.20;33.90
73586;DHT22;61865;50.232;18.614;2023-05-14T14:49:52;21.00;34.60
73586;DHT22;61865;50.232;18.614;2023-05-14T14:52:14;20.90;35.10